createdAt,value
2023-04-29T00:01:31.207Z,10.87
2023-04-29T00:31:35.015Z,10.61
2023-04-29T01:01:39.328Z,10.33
2023-04-29T01:31:42.955Z,10.18
2023-04-29T02:01:47.396Z,10.06
2023-04-29T02:31:50.612Z,10.61
2023-04-29T03:01:54.852Z,15.92
2023-04-29T03:31:58.288Z,15.02
2023-04-29T04:02:02.211Z,13.35
2023-04-29T04:32:06.080Z,12.29
2023-04-29T05:02:09.463Z,11.77
2023-04-29T05:32:12.596Z,11.98
2023-04-29T06:02:17.205Z,12.66
2023-04-29T06:32:20.108Z,12.77
2023-04-29T07:02:24.258Z,12.74
2023-04-29T07:32:27.407Z,13.58
2023-04-29T08:02:31.338Z,15.80
2023-04-29T08:32:34.439Z,17.92
2023-04-29T09:02:38.806Z,19.12
2023-04-29T09:32:42.073Z,18.95
2023-04-29T10:02:45.511Z,18.98
2023-04-29T10:32:51.752Z,18.63
2023-04-29T11:02:56.727Z,17.87
2023-04-29T11:33:00.277Z,18.06
2023-04-29T12:03:04.497Z,17.66
2023-04-29T12:33:08.249Z,21.27
2023-04-29T13:03:13.293Z,20.23
2023-04-29T13:33:16.937Z,18.78
2023-04-29T14:03:21.966Z,19.21
2023-04-29T14:33:25.106Z,21.80
2023-04-29T15:03:28.930Z,17.89
2023-04-29T15:33:32.435Z,20.94
2023-04-29T16:03:35.945Z,17.94
2023-04-29T16:33:39.340Z,18.79
2023-04-29T17:03:43.968Z,15.82
2023-04-29T17:33:47.445Z,19.33
2023-04-29T18:03:52.388Z,15.06
2023-04-29T18:33:55.937Z,19.01
2023-04-29T19:03:59.121Z,17.30
2023-04-29T19:34:02.301Z,17.63
2023-04-29T20:04:06.457Z,15.64
2023-04-29T20:34:09.600Z,15.29
2023-04-29T21:04:12.814Z,12.21
2023-04-29T21:34:15.668Z,16.12
2023-04-29T22:04:19.763Z,12.92
2023-04-29T22:34:22.578Z,14.40
2023-04-29T23:04:26.719Z,13.11
2023-04-29T23:34:29.588Z,10.81
